sensor_id;sensor_type;location;lat;lon;timestamp;temperature;humidity
36372;DHT22;22398;51.346;12.372;2024-03-07T00:02:51;6.30;90.10
36372;DHT22;22398;51.346;12.372;2024-03-07T00:07:56;6.30;90.40
36372;DHT22;22398;51.346;12.372;2024-03-07T00:13:00;6.30;90.50
36372;DHT22;22398;51.346;12.372;2024-03-07T00:18:06;6.20;90.80
36372;DHT22;22398;51.346;12.372;2024-03-07T00:23:10;6.20;90.90
36372;DHT22;22398;51.346;12.372;2024-03-07T00:28:13;6.20;91.10
36372;DHT22;22398;51.346;12.372;2024-03-07T00:33:20;6.20;91.40
36372;DHT22;22398;51.346;12.372;2024-03-07T00:38:24;6.10;91.70
36372;DHT22;22398;51.346;12.372;2024-03-07T00:43:27;6.10;92.00
36372;DHT22;22398;51.346;12.372;2024-03-07T00:48:32;6.00;92.40
36372;DHT22;22398;51.346;12.372;2024-03-07T00:53:35;6.00;92.90
36372;DHT22;22398;51.346;12.372;2024-03-07T00:58:39;6.10;93.40
36372;DHT22;22398;51.346;12.372;2024-03-07T01:03:44;6.10;93.80
36372;DHT22;22398;51.346;12.372;2024-03-07T01:08:48;6.10;94.30
36372;DHT22;22398;51.346;12.372;2024-03-07T01:13:52;6.10;94.80
36372;DHT22;22398;51.346;12.372;2024-03-07T01:18:57;6.00;95.40
36372;DHT22;22398;51.346;12.372;2024-03-07T01:24:01;6.00;95.90
36372;DHT22;22398;51.346;12.372;2024-03-07T01:29:04;6.10;96.50
36372;DHT22;22398;51.346;12.372;2024-03-07T01:34:11;6.10;97.10
36372;DHT22;22398;51.346;12.372;2024-03-07T01:39:14;6.00;97.70
36372;DHT22;22398;51.346;12.372;2024-03-07T01:44:18;5.90;98.30
36372;DHT22;22398;51.346;12.372;2024-03-07T01:49:23;5.90;99.30
36372;DHT22;22398;51.346;12.372;2024-03-07T01:54:26;5.90;99.90
36372;DHT22;22398;51.346;12.372;2024-03-07T01:59:32;5.90;99.90
36372;DHT22;22398;51.346;12.372;2024-03-07T02:04:37;5.90;99.90
36372;DHT22;22398;51.346;12.372;2024-03-07T02:09:41;5.80;99.90
36372;DHT22;22398;51.346;12.372;2024-03-07T02:14:44;5.80;99.90
36372;DHT22;22398;51.346;12.372;2024-03-07T02:19:49;5.80;99.90
36372;DHT22;22398;51.346;12.372;2024-03-07T02:24:54;5.80;99.90
36372;DHT22;22398;51.346;12.372;2024-03-07T02:29:58;5.80;99.90
36372;DHT22;22398;51.346;12.372;2024-03-07T02:35:01;5.80;99.90
36372;DHT22;22398;51.346;12.372;2024-03-07T02:40:08;5.80;99.90
36372;DHT22;22398;51.346;12.372;2024-03-07T02:45:13;5.80;99.90
36372;DHT22;22398;51.346;12.372;2024-03-07T02:50:17;5.80;99.90
36372;DHT22;22398;51.346;12.372;2024-03-07T02:55:22;5.80;99.90
36372;DHT22;22398;51.346;12.372;2024-03-07T03:00:26;5.90;99.90
36372;DHT22;22398;51.346;12.372;2024-03-07T03:05:32;5.90;99.90
36372;DHT22;22398;51.346;12.372;2024-03-07T03:10:37;5.90;99.90
36372;DHT22;22398;51.346;12.372;2024-03-07T03:15:41;6.00;99.90
36372;DHT22;22398;51.346;12.372;2024-03-07T03:20:45;6.00;99.90
36372;DHT22;22398;51.346;12.372;2024-03-07T03:25:51;6.00;99.90
36372;DHT22;22398;51.346;12.372;2024-03-07T03:30:55;6.00;99.90
36372;DHT22;22398;51.346;12.372;2024-03-07T03:35:59;6.10;99.90
36372;DHT22;22398;51.346;12.372;2024-03-07T03:41:04;6.00;99.90
36372;DHT22;22398;51.346;12.372;2024-03-07T03:46:09;6.00;99.90
36372;DHT22;22398;51.346;12.372;2024-03-07T03:51:13;6.10;99.90
36372;DHT22;22398;51.346;12.372;2024-03-07T03:56:18;6.10;99.90
36372;DHT22;22398;51.346;12.372;2024-03-07T04:01:22;6.20;99.90
36372;DHT22;22398;51.346;12.372;2024-03-07T04:06:25;6.20;99.90
36372;DHT22;22398;51.346;12.372;2024-03-07T04:11:30;6.20;99.90
36372;DHT22;22398;51.346;12.372;2024-03-07T04:16:34;6.20;99.90
36372;DHT22;22398;51.346;12.372;2024-03-07T04:21:38;6.30;99.90
36372;DHT22;22398;51.346;12.372;2024-03-07T04:26:43;6.30;99.90
36372;DHT22;22398;51.346;12.372;2024-03-07T04:31:46;6.20;99.90
36372;DHT22;22398;51.346;12.372;2024-03-07T04:36:49;6.20;99.90
36372;DHT22;22398;51.346;12.372;2024-03-07T04:41:54;6.30;99.90
36372;DHT22;22398;51.346;12.372;2024-03-07T04:46:59;6.30;99.90
36372;DHT22;22398;51.346;12.372;2024-03-07T04:52:03;6.30;99.90
36372;DHT22;22398;51.346;12.372;2024-03-07T04:57:09;6.20;99.90
36372;DHT22;22398;51.346;12.372;2024-03-07T05:02:13;6.30;99.90
36372;DHT22;22398;51.346;12.372;2024-03-07T05:07:16;6.20;99.90
36372;DHT22;22398;51.346;12.372;2024-03-07T05:12:21;6.10;99.90
36372;DHT22;22398;51.346;12.372;2024-03-07T05:17:24;6.10;99.90
36372;DHT22;22398;51.346;12.372;2024-03-07T05:22:28;6.00;99.90
36372;DHT22;22398;51.346;12.372;2024-03-07T05:27:34;5.90;99.90
36372;DHT22;22398;51.346;12.372;2024-03-07T05:32:38;5.90;99.90
36372;DHT22;22398;51.346;12.372;2024-03-07T05:37:42;5.80;99.90
36372;DHT22;22398;51.346;12.372;2024-03-07T05:42:50;5.70;99.90
36372;DHT22;22398;51.346;12.372;2024-03-07T05:47:55;5.30;99.90
36372;DHT22;22398;51.346;12.372;2024-03-07T05:52:58;5.30;99.90
36372;DHT22;22398;51.346;12.372;2024-03-07T05:58:03;4.90;99.90
36372;DHT22;22398;51.346;12.372;2024-03-07T06:03:07;4.90;99.90
36372;DHT22;22398;51.346;12.372;2024-03-07T06:08:11;4.90;99.90
36372;DHT22;22398;51.346;12.372;2024-03-07T06:13:18;4.90;99.90
36372;DHT22;22398;51.346;12.372;2024-03-07T06:18:21;4.90;99.90
36372;DHT22;22398;51.346;12.372;2024-03-07T06:23:25;4.90;99.90
36372;DHT22;22398;51.346;12.372;2024-03-07T06:28:32;4.90;99.90
36372;DHT22;22398;51.346;12.372;2024-03-07T06:33:35;4.90;99.90
36372;DHT22;22398;51.346;12.372;2024-03-07T06:38:39;4.90;99.90
36372;DHT22;22398;51.346;12.372;2024-03-07T06:43:44;4.90;99.90
36372;DHT22;22398;51.346;12.372;2024-03-07T06:48:47;4.90;99.90
36372;DHT22;22398;51.346;12.372;2024-03-07T06:53:51;4.90;99.90
36372;DHT22;22398;51.346;12.372;2024-03-07T06:58:56;4.90;99.90
36372;DHT22;22398;51.346;12.372;2024-03-07T07:04:00;4.80;99.90
36372;DHT22;22398;51.346;12.372;2024-03-07T07:09:06;4.80;99.90
36372;DHT22;22398;51.346;12.372;2024-03-07T07:14:11;4.90;99.90
36372;DHT22;22398;51.346;12.372;2024-03-07T07:19:14;5.00;99.90
36372;DHT22;22398;51.346;12.372;2024-03-07T07:24:18;5.00;99.90
36372;DHT22;22398;51.346;12.372;2024-03-07T07:29:25;5.00;99.90
36372;DHT22;22398;51.346;12.372;2024-03-07T07:34:29;5.00;99.90
36372;DHT22;22398;51.346;12.372;2024-03-07T07:39:33;5.20;99.90
36372;DHT22;22398;51.346;12.372;2024-03-07T07:44:38;5.30;99.90
36372;DHT22;22398;51.346;12.372;2024-03-07T07:49:43;5.40;99.90
36372;DHT22;22398;51.346;12.372;2024-03-07T07:54:47;5.50;99.90
36372;DHT22;22398;51.346;12.372;2024-03-07T07:59:51;5.60;99.90
36372;DHT22;22398;51.346;12.372;2024-03-07T08:04:55;5.70;99.90
36372;DHT22;22398;51.346;12.372;2024-03-07T08:09:59;5.80;99.90
36372;DHT22;22398;51.346;12.372;2024-03-07T08:15:05;5.80;99.90
36372;DHT22;22398;51.346;12.372;2024-03-07T08:20:11;5.90;99.90
36372;DHT22;22398;51.346;12.372;2024-03-07T08:25:27;6.10;99.90
36372;DHT22;22398;51.346;12.372;2024-03-07T08:30:41;6.20;98.90
36372;DHT22;22398;51.346;12.372;2024-03-07T08:35:45;6.20;97.90
36372;DHT22;22398;51.346;12.372;2024-03-07T08:40:48;6.20;97.30
36372;DHT22;22398;51.346;12.372;2024-03-07T08:45:53;6.40;96.50
36372;DHT22;22398;51.346;12.372;2024-03-07T08:50:56;6.40;95.60
36372;DHT22;22398;51.346;12.372;2024-03-07T08:56:00;6.40;94.70
36372;DHT22;22398;51.346;12.372;2024-03-07T09:01:05;6.60;93.80
36372;DHT22;22398;51.346;12.372;2024-03-07T09:06:08;6.70;93.00
36372;DHT22;22398;51.346;12.372;2024-03-07T09:11:15;7.00;92.20
36372;DHT22;22398;51.346;12.372;2024-03-07T09:16:20;7.10;91.30
36372;DHT22;22398;51.346;12.372;2024-03-07T09:21:24;7.10;90.60
36372;DHT22;22398;51.346;12.372;2024-03-07T09:26:30;7.30;89.90
36372;DHT22;22398;51.346;12.372;2024-03-07T09:31:35;7.70;89.10
36372;DHT22;22398;51.346;12.372;2024-03-07T09:36:39;7.70;86.70
36372;DHT22;22398;51.346;12.372;2024-03-07T09:41:43;7.90;85.40
36372;DHT22;22398;51.346;12.372;2024-03-07T09:46:48;8.30;84.70
36372;DHT22;22398;51.346;12.372;2024-03-07T09:51:53;8.30;83.00
36372;DHT22;22398;51.346;12.372;2024-03-07T09:56:59;8.10;81.60
36372;DHT22;22398;51.346;12.372;2024-03-07T10:02:07;8.00;81.10
36372;DHT22;22398;51.346;12.372;2024-03-07T10:07:11;8.30;80.80
36372;DHT22;22398;51.346;12.372;2024-03-07T10:12:16;8.70;79.60
36372;DHT22;22398;51.346;12.372;2024-03-07T10:17:23;8.80;78.90
36372;DHT22;22398;51.346;12.372;2024-03-07T10:22:28;9.00;78.00
36372;DHT22;22398;51.346;12.372;2024-03-07T10:27:31;8.80;77.00
36372;DHT22;22398;51.346;12.372;2024-03-07T10:32:36;9.10;77.10
36372;DHT22;22398;51.346;12.372;2024-03-07T10:37:40;8.90;75.80
36372;DHT22;22398;51.346;12.372;2024-03-07T10:42:48;8.90;75.20
36372;DHT22;22398;51.346;12.372;2024-03-07T10:47:57;8.60;73.50
36372;DHT22;22398;51.346;12.372;2024-03-07T10:53:07;8.60;73.80
36372;DHT22;22398;51.346;12.372;2024-03-07T10:58:18;9.10;73.40
36372;DHT22;22398;51.346;12.372;2024-03-07T11:03:28;9.60;73.00
36372;DHT22;22398;51.346;12.372;2024-03-07T11:08:32;10.10;72.10
36372;DHT22;22398;51.346;12.372;2024-03-07T11:13:36;10.10;70.50
36372;DHT22;22398;51.346;12.372;2024-03-07T11:18:41;9.90;70.10
36372;DHT22;22398;51.346;12.372;2024-03-07T11:23:45;10.00;69.90
36372;DHT22;22398;51.346;12.372;2024-03-07T11:28:48;10.50;69.50
36372;DHT22;22398;51.346;12.372;2024-03-07T11:34:16;10.20;68.30
36372;DHT22;22398;51.346;12.372;2024-03-07T11:39:39;10.00;68.40
36372;DHT22;22398;51.346;12.372;2024-03-07T11:44:45;9.80;68.10
36372;DHT22;22398;51.346;12.372;2024-03-07T11:49:50;9.90;68.00
36372;DHT22;22398;51.346;12.372;2024-03-07T11:54:54;9.40;67.80
36372;DHT22;22398;51.346;12.372;2024-03-07T12:00:09;9.30;68.00
36372;DHT22;22398;51.346;12.372;2024-03-07T12:05:17;8.90;67.90
36372;DHT22;22398;51.346;12.372;2024-03-07T12:10:21;8.50;68.20
36372;DHT22;22398;51.346;12.372;2024-03-07T12:15:27;8.40;68.60
36372;DHT22;22398;51.346;12.372;2024-03-07T12:20:32;8.40;68.70
36372;DHT22;22398;51.346;12.372;2024-03-07T12:25:36;8.40;69.10
36372;DHT22;22398;51.346;12.372;2024-03-07T12:30:57;8.40;68.60
36372;DHT22;22398;51.346;12.372;2024-03-07T12:36:06;8.20;68.30
36372;DHT22;22398;51.346;12.372;2024-03-07T12:41:10;8.10;68.50
36372;DHT22;22398;51.346;12.372;2024-03-07T12:46:18;8.10;68.60
36372;DHT22;22398;51.346;12.372;2024-03-07T12:51:23;8.50;69.10
36372;DHT22;22398;51.346;12.372;2024-03-07T12:56:26;9.00;68.70
36372;DHT22;22398;51.346;12.372;2024-03-07T13:01:30;9.40;68.10
36372;DHT22;22398;51.346;12.372;2024-03-07T13:06:37;9.70;67.30
36372;DHT22;22398;51.346;12.372;2024-03-07T13:11:45;9.70;66.70
36372;DHT22;22398;51.346;12.372;2024-03-07T13:16:49;9.70;67.00
36372;DHT22;22398;51.346;12.372;2024-03-07T13:21:54;9.20;66.10
36372;DHT22;22398;51.346;12.372;2024-03-07T13:26:58;9.00;66.40
36372;DHT22;22398;51.346;12.372;2024-03-07T13:32:01;9.10;66.40
36372;DHT22;22398;51.346;12.372;2024-03-07T13:37:07;9.10;66.50
36372;DHT22;22398;51.346;12.372;2024-03-07T13:42:12;9.00;66.50
36372;DHT22;22398;51.346;12.372;2024-03-07T13:47:16;9.10;66.70
36372;DHT22;22398;51.346;12.372;2024-03-07T13:52:24;9.10;66.50
36372;DHT22;22398;51.346;12.372;2024-03-07T13:57:35;8.90;66.40
36372;DHT22;22398;51.346;12.372;2024-03-07T14:02:57;9.00;66.90
36372;DHT22;22398;51.346;12.372;2024-03-07T14:08:22;8.80;66.40
36372;DHT22;22398;51.346;12.372;2024-03-07T14:13:40;8.70;66.30
36372;DHT22;22398;51.346;12.372;2024-03-07T14:19:16;8.40;66.10
36372;DHT22;22398;51.346;12.372;2024-03-07T14:30:23;8.90;66.20
36372;DHT22;22398;51.346;12.372;2024-03-07T14:35:32;9.20;65.90
36372;DHT22;22398;51.346;12.372;2024-03-07T14:40:38;9.10;65.50
36372;DHT22;22398;51.346;12.372;2024-03-07T14:45:41;9.10;65.40
36372;DHT22;22398;51.346;12.372;2024-03-07T14:50:45;9.00;65.60
36372;DHT22;22398;51.346;12.372;2024-03-07T14:55:50;8.90;66.00
36372;DHT22;22398;51.346;12.372;2024-03-07T15:00:54;8.90;65.50
36372;DHT22;22398;51.346;12.372;2024-03-07T15:05:59;8.60;65.40
36372;DHT22;22398;51.346;12.372;2024-03-07T15:11:09;8.40;65.60
36372;DHT22;22398;51.346;12.372;2024-03-07T15:16:19;8.40;66.00
36372;DHT22;22398;51.346;12.372;2024-03-07T15:21:34;8.40;65.90
36372;DHT22;22398;51.346;12.372;2024-03-07T15:26:40;8.30;66.00
36372;DHT22;22398;51.346;12.372;2024-03-07T15:31:48;8.10;66.20
36372;DHT22;22398;51.346;12.372;2024-03-07T15:37:00;8.00;66.30
36372;DHT22;22398;51.346;12.372;2024-03-07T15:42:05;7.90;66.60
36372;DHT22;22398;51.346;12.372;2024-03-07T15:47:11;7.90;66.60
36372;DHT22;22398;51.346;12.372;2024-03-07T15:52:14;7.80;66.70
36372;DHT22;22398;51.346;12.372;2024-03-07T15:57:21;7.60;67.00
36372;DHT22;22398;51.346;12.372;2024-03-07T16:02:24;7.60;67.20
36372;DHT22;22398;51.346;12.372;2024-03-07T16:07:28;7.60;67.30
36372;DHT22;22398;51.346;12.372;2024-03-07T16:12:32;7.60;67.80
36372;DHT22;22398;51.346;12.372;2024-03-07T16:17:35;7.50;67.40
36372;DHT22;22398;51.346;12.372;2024-03-07T16:22:40;7.40;67.50
36372;DHT22;22398;51.346;12.372;2024-03-07T16:27:45;7.30;67.70
36372;DHT22;22398;51.346;12.372;2024-03-07T16:32:50;7.20;68.00
36372;DHT22;22398;51.346;12.372;2024-03-07T16:38:00;7.20;68.20
36372;DHT22;22398;51.346;12.372;2024-03-07T16:43:06;7.10;68.20
36372;DHT22;22398;51.346;12.372;2024-03-07T16:48:15;7.00;68.40
36372;DHT22;22398;51.346;12.372;2024-03-07T16:53:18;7.00;68.70
36372;DHT22;22398;51.346;12.372;2024-03-07T16:58:23;6.80;69.00
36372;DHT22;22398;51.346;12.372;2024-03-07T17:03:26;6.70;69.30
36372;DHT22;22398;51.346;12.372;2024-03-07T18:28:25;5.70;71.80
36372;DHT22;22398;51.346;12.372;2024-03-07T18:33:28;5.60;72.70
36372;DHT22;22398;51.346;12.372;2024-03-07T18:38:32;5.60;72.90
36372;DHT22;22398;51.346;12.372;2024-03-07T18:43:34;5.50;73.10
36372;DHT22;22398;51.346;12.372;2024-03-07T18:48:36;5.30;73.20
36372;DHT22;22398;51.346;12.372;2024-03-07T18:53:38;5.30;73.60
36372;DHT22;22398;51.346;12.372;2024-03-07T18:58:40;5.20;73.90
36372;DHT22;22398;51.346;12.372;2024-03-07T19:03:46;5.20;74.00
36372;DHT22;22398;51.346;12.372;2024-03-07T19:08:48;5.20;74.20
36372;DHT22;22398;51.346;12.372;2024-03-07T19:13:53;5.10;74.30
36372;DHT22;22398;51.346;12.372;2024-03-07T19:18:55;5.00;74.50
36372;DHT22;22398;51.346;12.372;2024-03-07T19:23:57;4.80;74.70
36372;DHT22;22398;51.346;12.372;2024-03-07T19:28:59;4.60;74.90
36372;DHT22;22398;51.346;12.372;2024-03-07T19:34:02;4.50;75.40
36372;DHT22;22398;51.346;12.372;2024-03-07T19:39:04;4.30;75.60
36372;DHT22;22398;51.346;12.372;2024-03-07T19:44:14;4.20;75.90
36372;DHT22;22398;51.346;12.372;2024-03-07T19:49:17;4.00;76.20
36372;DHT22;22398;51.346;12.372;2024-03-07T19:54:19;3.90;76.30
36372;DHT22;22398;51.346;12.372;2024-03-07T19:59:21;3.80;76.60
36372;DHT22;22398;51.346;12.372;2024-03-07T20:04:23;3.80;77.00
36372;DHT22;22398;51.346;12.372;2024-03-07T20:09:25;3.70;77.10
36372;DHT22;22398;51.346;12.372;2024-03-07T20:14:28;3.60;77.20
36372;DHT22;22398;51.346;12.372;2024-03-07T20:19:29;3.50;77.80
36372;DHT22;22398;51.346;12.372;2024-03-07T20:24:33;3.40;77.90
36372;DHT22;22398;51.346;12.372;2024-03-07T20:29:37;3.30;78.20
36372;DHT22;22398;51.346;12.372;2024-03-07T20:34:40;3.20;78.40
36372;DHT22;22398;51.346;12.372;2024-03-07T20:39:42;3.10;79.10
36372;DHT22;22398;51.346;12.372;2024-03-07T20:45:07;3.10;78.80
36372;DHT22;22398;51.346;12.372;2024-03-07T20:50:10;2.90;79.10
36372;DHT22;22398;51.346;12.372;2024-03-07T20:55:13;2.90;79.20
36372;DHT22;22398;51.346;12.372;2024-03-07T21:00:18;2.80;79.40
36372;DHT22;22398;51.346;12.372;2024-03-07T21:05:24;2.70;79.80
36372;DHT22;22398;51.346;12.372;2024-03-07T21:10:26;2.60;80.00
36372;DHT22;22398;51.346;12.372;2024-03-07T21:15:31;2.60;80.10
36372;DHT22;22398;51.346;12.372;2024-03-07T21:20:33;2.50;80.10
36372;DHT22;22398;51.346;12.372;2024-03-07T21:25:35;2.30;80.40
36372;DHT22;22398;51.346;12.372;2024-03-07T21:30:38;2.20;80.70
36372;DHT22;22398;51.346;12.372;2024-03-07T21:35:39;2.10;81.00
36372;DHT22;22398;51.346;12.372;2024-03-07T21:40:42;2.10;81.40
36372;DHT22;22398;51.346;12.372;2024-03-07T21:45:45;1.90;81.50
36372;DHT22;22398;51.346;12.372;2024-03-07T21:50:48;1.80;81.60
36372;DHT22;22398;51.346;12.372;2024-03-07T21:55:50;1.70;82.00
36372;DHT22;22398;51.346;12.372;2024-03-07T22:00:57;1.60;82.20
36372;DHT22;22398;51.346;12.372;2024-03-07T22:05:59;1.50;82.60
36372;DHT22;22398;51.346;12.372;2024-03-07T22:11:02;1.40;82.80
36372;DHT22;22398;51.346;12.372;2024-03-07T22:16:06;1.40;83.30
36372;DHT22;22398;51.346;12.372;2024-03-07T22:21:10;1.40;83.30
36372;DHT22;22398;51.346;12.372;2024-03-07T22:26:12;1.30;83.50
36372;DHT22;22398;51.346;12.372;2024-03-07T22:31:14;1.20;83.70
36372;DHT22;22398;51.346;12.372;2024-03-07T22:36:16;1.10;84.00
36372;DHT22;22398;51.346;12.372;2024-03-07T22:41:19;1.10;84.40
36372;DHT22;22398;51.346;12.372;2024-03-07T22:46:21;1.00;84.60
36372;DHT22;22398;51.346;12.372;2024-03-07T22:51:24;0.90;84.80
36372;DHT22;22398;51.346;12.372;2024-03-07T22:56:25;0.90;85.10
36372;DHT22;22398;51.346;12.372;2024-03-07T23:01:32;0.80;85.20
36372;DHT22;22398;51.346;12.372;2024-03-07T23:06:33;0.70;85.60
36372;DHT22;22398;51.346;12.372;2024-03-07T23:11:35;0.60;85.80
36372;DHT22;22398;51.346;12.372;2024-03-07T23:16:37;0.70;86.20
36372;DHT22;22398;51.346;12.372;2024-03-07T23:21:39;0.60;86.30
36372;DHT22;22398;51.346;12.372;2024-03-07T23:26:45;0.60;86.60
36372;DHT22;22398;51.346;12.372;2024-03-07T23:31:53;0.70;86.90
36372;DHT22;22398;51.346;12.372;2024-03-07T23:36:56;0.60;86.90
36372;DHT22;22398;51.346;12.372;2024-03-07T23:41:58;0.50;87.20
36372;DHT22;22398;51.346;12.372;2024-03-07T23:47:03;0.60;87.50
36372;DHT22;22398;51.346;12.372;2024-03-07T23:52:05;0.50;87.70
36372;DHT22;22398;51.346;12.372;2024-03-07T23:57:07;0.50;88.10
